sensor_id;sensor_type;location;lat;lon;timestamp;temperature;humidity
4757;DHT22;2392;52.578;13.426;2022-09-06T00:00:38;17.60;70.70
4757;DHT22;2392;52.578;13.426;2022-09-06T00:03:05;17.60;70.60
4757;DHT22;2392;52.578;13.426;2022-09-06T00:05:35;17.60;70.70
4757;DHT22;2392;52.578;13.426;2022-09-06T00:08:04;17.50;70.70
4757;DHT22;2392;52.578;13.426;2022-09-06T00:10:32;17.60;70.70
4757;DHT22;2392;52.578;13.426;2022-09-06T00:13:01;17.50;70.60
4757;DHT22;2392;52.578;13.426;2022-09-06T00:15:28;17.50;70.60
4757;DHT22;2392;52.578;13.426;2022-09-06T00:17:57;17.40;70.20
4757;DHT22;2392;52.578;13.426;2022-09-06T00:20:25;17.40;70.40
4757;DHT22;2392;52.578;13.426;2022-09-06T00:22:57;17.40;70.80
4757;DHT22;2392;52.578;13.426;2022-09-06T00:25:24;17.30;70.90
4757;DHT22;2392;52.578;13.426;2022-09-06T00:27:55;17.30;70.90
4757;DHT22;2392;52.578;13.426;2022-09-06T00:30:22;17.20;70.80
4757;DHT22;2392;52.578;13.426;2022-09-06T00:32:49;17.20;71.00
4757;DHT22;2392;52.578;13.426;2022-09-06T00:35:17;17.20;71.20
4757;DHT22;2392;52.578;13.426;2022-09-06T00:37:44;17.20;71.60
4757;DHT22;2392;52.578;13.426;2022-09-06T00:40:13;17.10;71.10
4757;DHT22;2392;52.578;13.426;2022-09-06T00:42:40;17.10;71.00
4757;DHT22;2392;52.578;13.426;2022-09-06T00:45:09;17.10;71.20
4757;DHT22;2392;52.578;13.426;2022-09-06T00:47:39;17.00;71.30
4757;DHT22;2392;52.578;13.426;2022-09-06T00:50:08;17.00;71.30
4757;DHT22;2392;52.578;13.426;2022-09-06T00:52:37;17.00;71.60
4757;DHT22;2392;52.578;13.426;2022-09-06T00:55:05;17.00;71.60
4757;DHT22;2392;52.578;13.426;2022-09-06T00:57:34;17.00;71.80
4757;DHT22;2392;52.578;13.426;2022-09-06T01:00:04;16.90;71.70
4757;DHT22;2392;52.578;13.426;2022-09-06T01:02:31;16.90;71.50
4757;DHT22;2392;52.578;13.426;2022-09-06T01:04:59;16.80;71.90
4757;DHT22;2392;52.578;13.426;2022-09-06T01:07:40;16.90;72.10
4757;DHT22;2392;52.578;13.426;2022-09-06T01:10:30;16.90;72.30
4757;DHT22;2392;52.578;13.426;2022-09-06T01:13:06;16.80;72.00
4757;DHT22;2392;52.578;13.426;2022-09-06T01:15:46;16.80;71.90
4757;DHT22;2392;52.578;13.426;2022-09-06T01:18:26;16.80;72.40
4757;DHT22;2392;52.578;13.426;2022-09-06T01:21:23;16.80;72.20
4757;DHT22;2392;52.578;13.426;2022-09-06T01:27:30;16.70;72.50
4757;DHT22;2392;52.578;13.426;2022-09-06T01:30:02;16.70;72.50
4757;DHT22;2392;52.578;13.426;2022-09-06T01:32:35;16.70;72.50
4757;DHT22;2392;52.578;13.426;2022-09-06T01:35:14;16.60;72.40
4757;DHT22;2392;52.578;13.426;2022-09-06T01:37:43;16.60;72.80
4757;DHT22;2392;52.578;13.426;2022-09-06T01:40:10;16.50;72.70
4757;DHT22;2392;52.578;13.426;2022-09-06T01:42:39;16.50;73.00
4757;DHT22;2392;52.578;13.426;2022-09-06T01:45:08;16.50;73.20
4757;DHT22;2392;52.578;13.426;2022-09-06T01:47:39;16.50;73.50
4757;DHT22;2392;52.578;13.426;2022-09-06T01:50:35;16.50;73.30
4757;DHT22;2392;52.578;13.426;2022-09-06T01:53:20;16.60;73.70
4757;DHT22;2392;52.578;13.426;2022-09-06T01:55:53;16.60;73.50
4757;DHT22;2392;52.578;13.426;2022-09-06T01:58:38;16.60;73.50
4757;DHT22;2392;52.578;13.426;2022-09-06T02:01:17;16.60;73.50
4757;DHT22;2392;52.578;13.426;2022-09-06T02:03:52;16.60;73.70
4757;DHT22;2392;52.578;13.426;2022-09-06T02:06:27;16.50;73.50
4757;DHT22;2392;52.578;13.426;2022-09-06T02:09:02;16.50;73.80
4757;DHT22;2392;52.578;13.426;2022-09-06T02:11:36;16.50;73.90
4757;DHT22;2392;52.578;13.426;2022-09-06T02:14:10;16.50;74.30
4757;DHT22;2392;52.578;13.426;2022-09-06T02:16:40;16.50;74.20
4757;DHT22;2392;52.578;13.426;2022-09-06T02:19:12;16.50;74.50
4757;DHT22;2392;52.578;13.426;2022-09-06T02:21:44;16.50;74.70
4757;DHT22;2392;52.578;13.426;2022-09-06T02:24:17;16.50;74.70
4757;DHT22;2392;52.578;13.426;2022-09-06T02:26:45;16.40;74.80
4757;DHT22;2392;52.578;13.426;2022-09-06T02:29:15;16.40;75.00
4757;DHT22;2392;52.578;13.426;2022-09-06T02:31:46;16.40;75.30
4757;DHT22;2392;52.578;13.426;2022-09-06T02:34:16;16.40;75.40
4757;DHT22;2392;52.578;13.426;2022-09-06T02:36:43;16.40;75.90
4757;DHT22;2392;52.578;13.426;2022-09-06T02:39:11;16.30;75.80
4757;DHT22;2392;52.578;13.426;2022-09-06T02:41:39;16.30;76.20
4757;DHT22;2392;52.578;13.426;2022-09-06T02:44:06;16.20;76.20
4757;DHT22;2392;52.578;13.426;2022-09-06T02:46:35;16.20;76.80
4757;DHT22;2392;52.578;13.426;2022-09-06T02:49:01;16.20;77.10
4757;DHT22;2392;52.578;13.426;2022-09-06T02:51:28;16.10;77.30
4757;DHT22;2392;52.578;13.426;2022-09-06T02:53:55;16.10;77.40
4757;DHT22;2392;52.578;13.426;2022-09-06T02:56:22;16.10;77.80
4757;DHT22;2392;52.578;13.426;2022-09-06T02:58:49;16.00;77.80
4757;DHT22;2392;52.578;13.426;2022-09-06T03:01:16;16.10;78.10
4757;DHT22;2392;52.578;13.426;2022-09-06T03:03:44;16.00;78.30
4757;DHT22;2392;52.578;13.426;2022-09-06T03:06:11;16.00;78.40
4757;DHT22;2392;52.578;13.426;2022-09-06T03:08:38;16.10;78.70
4757;DHT22;2392;52.578;13.426;2022-09-06T03:11:05;16.00;78.80
4757;DHT22;2392;52.578;13.426;2022-09-06T03:13:32;16.00;78.70
4757;DHT22;2392;52.578;13.426;2022-09-06T03:15:59;16.00;79.10
4757;DHT22;2392;52.578;13.426;2022-09-06T03:18:28;16.00;79.40
4757;DHT22;2392;52.578;13.426;2022-09-06T03:20:56;16.00;79.30
4757;DHT22;2392;52.578;13.426;2022-09-06T03:23:25;16.00;79.40
4757;DHT22;2392;52.578;13.426;2022-09-06T03:25:52;15.90;79.70
4757;DHT22;2392;52.578;13.426;2022-09-06T03:28:19;15.90;79.90
4757;DHT22;2392;52.578;13.426;2022-09-06T03:30:48;15.90;80.10
4757;DHT22;2392;52.578;13.426;2022-09-06T03:33:16;15.90;80.20
4757;DHT22;2392;52.578;13.426;2022-09-06T03:35:48;15.90;80.20
4757;DHT22;2392;52.578;13.426;2022-09-06T03:38:17;15.90;80.30
4757;DHT22;2392;52.578;13.426;2022-09-06T03:40:45;15.90;80.30
4757;DHT22;2392;52.578;13.426;2022-09-06T03:43:12;15.90;80.60
4757;DHT22;2392;52.578;13.426;2022-09-06T03:45:43;15.80;80.40
4757;DHT22;2392;52.578;13.426;2022-09-06T03:48:10;15.80;80.60
4757;DHT22;2392;52.578;13.426;2022-09-06T03:50:37;15.80;80.80
4757;DHT22;2392;52.578;13.426;2022-09-06T03:53:05;15.70;80.80
4757;DHT22;2392;52.578;13.426;2022-09-06T03:55:33;15.80;81.10
4757;DHT22;2392;52.578;13.426;2022-09-06T03:58:00;15.80;81.30
4757;DHT22;2392;52.578;13.426;2022-09-06T04:00:27;15.70;81.30
4757;DHT22;2392;52.578;13.426;2022-09-06T04:02:54;15.80;81.40
4757;DHT22;2392;52.578;13.426;2022-09-06T04:05:21;15.80;81.30
4757;DHT22;2392;52.578;13.426;2022-09-06T04:07:48;15.80;81.40
4757;DHT22;2392;52.578;13.426;2022-09-06T04:10:15;15.80;81.70
4757;DHT22;2392;52.578;13.426;2022-09-06T04:12:43;15.80;81.50
4757;DHT22;2392;52.578;13.426;2022-09-06T04:15:10;15.80;81.60
4757;DHT22;2392;52.578;13.426;2022-09-06T04:17:38;15.80;81.60
4757;DHT22;2392;52.578;13.426;2022-09-06T04:20:05;15.80;81.70
4757;DHT22;2392;52.578;13.426;2022-09-06T04:22:32;15.80;81.90
4757;DHT22;2392;52.578;13.426;2022-09-06T04:24:59;15.70;81.90
4757;DHT22;2392;52.578;13.426;2022-09-06T04:27:26;15.70;81.90
4757;DHT22;2392;52.578;13.426;2022-09-06T04:29:54;15.70;82.20
4757;DHT22;2392;52.578;13.426;2022-09-06T04:32:21;15.70;82.30
4757;DHT22;2392;52.578;13.426;2022-09-06T04:34:48;15.60;82.30
4757;DHT22;2392;52.578;13.426;2022-09-06T04:37:15;15.60;82.50
4757;DHT22;2392;52.578;13.426;2022-09-06T04:39:44;15.60;82.60
4757;DHT22;2392;52.578;13.426;2022-09-06T04:42:11;15.60;82.50
4757;DHT22;2392;52.578;13.426;2022-09-06T04:44:38;15.60;82.50
4757;DHT22;2392;52.578;13.426;2022-09-06T04:47:11;15.50;82.60
4757;DHT22;2392;52.578;13.426;2022-09-06T04:49:39;15.50;82.90
4757;DHT22;2392;52.578;13.426;2022-09-06T04:52:06;15.50;83.00
4757;DHT22;2392;52.578;13.426;2022-09-06T04:54:33;15.50;83.20
4757;DHT22;2392;52.578;13.426;2022-09-06T04:57:00;15.50;83.00
4757;DHT22;2392;52.578;13.426;2022-09-06T04:59:27;15.50;83.60
4757;DHT22;2392;52.578;13.426;2022-09-06T05:01:55;15.60;83.20
4757;DHT22;2392;52.578;13.426;2022-09-06T05:04:23;15.60;83.00
4757;DHT22;2392;52.578;13.426;2022-09-06T05:06:58;15.60;82.80
4757;DHT22;2392;52.578;13.426;2022-09-06T05:09:26;15.60;82.90
4757;DHT22;2392;52.578;13.426;2022-09-06T05:11:53;15.60;83.00
4757;DHT22;2392;52.578;13.426;2022-09-06T05:14:20;15.60;83.00
4757;DHT22;2392;52.578;13.426;2022-09-06T05:16:47;15.60;82.90
4757;DHT22;2392;52.578;13.426;2022-09-06T05:19:15;15.60;82.90
4757;DHT22;2392;52.578;13.426;2022-09-06T05:21:43;15.70;83.00
4757;DHT22;2392;52.578;13.426;2022-09-06T05:24:10;15.60;83.20
4757;DHT22;2392;52.578;13.426;2022-09-06T05:26:37;15.70;83.20
4757;DHT22;2392;52.578;13.426;2022-09-06T05:29:04;15.70;83.30
4757;DHT22;2392;52.578;13.426;2022-09-06T05:31:33;15.70;83.10
4757;DHT22;2392;52.578;13.426;2022-09-06T05:34:00;15.70;83.20
4757;DHT22;2392;52.578;13.426;2022-09-06T05:36:28;15.70;83.00
4757;DHT22;2392;52.578;13.426;2022-09-06T05:38:57;15.70;82.90
4757;DHT22;2392;52.578;13.426;2022-09-06T05:41:24;15.80;83.20
4757;DHT22;2392;52.578;13.426;2022-09-06T05:43:51;15.80;83.00
4757;DHT22;2392;52.578;13.426;2022-09-06T05:46:18;15.80;83.00
4757;DHT22;2392;52.578;13.426;2022-09-06T05:48:51;15.80;83.00
4757;DHT22;2392;52.578;13.426;2022-09-06T05:51:18;15.90;83.10
4757;DHT22;2392;52.578;13.426;2022-09-06T05:53:46;15.90;83.20
4757;DHT22;2392;52.578;13.426;2022-09-06T05:56:15;15.90;83.20
4757;DHT22;2392;52.578;13.426;2022-09-06T05:58:42;16.00;83.30
4757;DHT22;2392;52.578;13.426;2022-09-06T06:01:14;16.00;83.00
4757;DHT22;2392;52.578;13.426;2022-09-06T06:03:41;16.00;82.90
4757;DHT22;2392;52.578;13.426;2022-09-06T06:06:09;15.90;82.60
4757;DHT22;2392;52.578;13.426;2022-09-06T06:08:36;16.00;83.00
4757;DHT22;2392;52.578;13.426;2022-09-06T06:11:02;16.00;83.10
4757;DHT22;2392;52.578;13.426;2022-09-06T06:13:31;16.00;83.00
4757;DHT22;2392;52.578;13.426;2022-09-06T06:16:00;16.00;82.80
4757;DHT22;2392;52.578;13.426;2022-09-06T06:18:27;16.00;82.80
4757;DHT22;2392;52.578;13.426;2022-09-06T06:21:09;16.00;82.70
4757;DHT22;2392;52.578;13.426;2022-09-06T06:23:37;16.10;82.90
4757;DHT22;2392;52.578;13.426;2022-09-06T06:26:05;16.10;82.90
4757;DHT22;2392;52.578;13.426;2022-09-06T06:28:34;16.20;82.80
4757;DHT22;2392;52.578;13.426;2022-09-06T06:31:01;16.20;82.80
4757;DHT22;2392;52.578;13.426;2022-09-06T06:33:28;16.30;82.50
4757;DHT22;2392;52.578;13.426;2022-09-06T06:36:00;16.30;82.50
4757;DHT22;2392;52.578;13.426;2022-09-06T06:38:31;16.30;82.70
4757;DHT22;2392;52.578;13.426;2022-09-06T06:40:59;16.40;82.80
4757;DHT22;2392;52.578;13.426;2022-09-06T06:43:27;16.50;82.40
4757;DHT22;2392;52.578;13.426;2022-09-06T06:45:55;16.50;82.60
4757;DHT22;2392;52.578;13.426;2022-09-06T06:48:22;16.50;83.20
4757;DHT22;2392;52.578;13.426;2022-09-06T06:50:49;16.60;82.40
4757;DHT22;2392;52.578;13.426;2022-09-06T06:53:16;16.60;82.40
4757;DHT22;2392;52.578;13.426;2022-09-06T06:55:46;16.50;82.90
4757;DHT22;2392;52.578;13.426;2022-09-06T06:58:14;16.60;82.20
4757;DHT22;2392;52.578;13.426;2022-09-06T07:00:41;16.60;82.50
4757;DHT22;2392;52.578;13.426;2022-09-06T07:03:10;16.60;82.10
4757;DHT22;2392;52.578;13.426;2022-09-06T07:05:38;16.70;82.70
4757;DHT22;2392;52.578;13.426;2022-09-06T07:08:06;16.80;82.60
4757;DHT22;2392;52.578;13.426;2022-09-06T07:10:33;16.80;82.00
4757;DHT22;2392;52.578;13.426;2022-09-06T07:13:00;16.80;82.30
4757;DHT22;2392;52.578;13.426;2022-09-06T07:15:27;16.90;82.60
4757;DHT22;2392;52.578;13.426;2022-09-06T07:17:54;17.00;82.70
4757;DHT22;2392;52.578;13.426;2022-09-06T07:20:23;17.10;82.50
4757;DHT22;2392;52.578;13.426;2022-09-06T07:22:57;17.30;83.20
4757;DHT22;2392;52.578;13.426;2022-09-06T07:25:25;17.30;81.40
4757;DHT22;2392;52.578;13.426;2022-09-06T07:27:56;17.40;81.60
4757;DHT22;2392;52.578;13.426;2022-09-06T07:30:23;17.50;81.50
4757;DHT22;2392;52.578;13.426;2022-09-06T07:32:50;17.50;81.90
4757;DHT22;2392;52.578;13.426;2022-09-06T07:35:17;17.50;82.20
4757;DHT22;2392;52.578;13.426;2022-09-06T07:37:52;17.60;82.00
4757;DHT22;2392;52.578;13.426;2022-09-06T07:40:20;17.60;81.90
4757;DHT22;2392;52.578;13.426;2022-09-06T07:42:47;17.60;81.60
4757;DHT22;2392;52.578;13.426;2022-09-06T07:45:14;17.60;81.70
4757;DHT22;2392;52.578;13.426;2022-09-06T07:47:40;17.70;81.90
4757;DHT22;2392;52.578;13.426;2022-09-06T07:50:07;17.80;82.10
4757;DHT22;2392;52.578;13.426;2022-09-06T07:52:34;17.80;82.30
4757;DHT22;2392;52.578;13.426;2022-09-06T07:55:03;17.90;82.20
4757;DHT22;2392;52.578;13.426;2022-09-06T07:57:30;17.90;82.20
4757;DHT22;2392;52.578;13.426;2022-09-06T07:59:57;18.00;82.10
4757;DHT22;2392;52.578;13.426;2022-09-06T08:02:25;18.10;82.40
4757;DHT22;2392;52.578;13.426;2022-09-06T08:04:52;18.20;82.20
4757;DHT22;2392;52.578;13.426;2022-09-06T08:07:21;18.30;82.20
4757;DHT22;2392;52.578;13.426;2022-09-06T08:09:49;18.30;82.10
4757;DHT22;2392;52.578;13.426;2022-09-06T08:12:17;18.40;82.30
4757;DHT22;2392;52.578;13.426;2022-09-06T08:14:44;18.60;82.50
4757;DHT22;2392;52.578;13.426;2022-09-06T08:17:11;18.60;82.60
4757;DHT22;2392;52.578;13.426;2022-09-06T08:19:38;18.70;83.00
4757;DHT22;2392;52.578;13.426;2022-09-06T08:22:05;18.80;83.20
4757;DHT22;2392;52.578;13.426;2022-09-06T08:24:31;18.90;83.20
4757;DHT22;2392;52.578;13.426;2022-09-06T08:27:00;19.00;83.00
4757;DHT22;2392;52.578;13.426;2022-09-06T08:29:28;19.10;82.50
4757;DHT22;2392;52.578;13.426;2022-09-06T08:31:55;19.20;82.20
4757;DHT22;2392;52.578;13.426;2022-09-06T08:34:22;19.20;82.70
4757;DHT22;2392;52.578;13.426;2022-09-06T08:36:49;19.20;82.20
4757;DHT22;2392;52.578;13.426;2022-09-06T08:39:16;19.30;82.30
4757;DHT22;2392;52.578;13.426;2022-09-06T08:41:48;19.30;82.00
4757;DHT22;2392;52.578;13.426;2022-09-06T08:44:20;19.40;82.30
4757;DHT22;2392;52.578;13.426;2022-09-06T08:46:53;19.50;82.10
4757;DHT22;2392;52.578;13.426;2022-09-06T08:49:22;19.50;81.90
4757;DHT22;2392;52.578;13.426;2022-09-06T08:54:50;19.70;81.90
4757;DHT22;2392;52.578;13.426;2022-09-06T08:57:29;19.70;81.90
4757;DHT22;2392;52.578;13.426;2022-09-06T09:00:00;19.70;81.90
4757;DHT22;2392;52.578;13.426;2022-09-06T09:02:40;19.80;81.60
4757;DHT22;2392;52.578;13.426;2022-09-06T09:05:14;19.80;81.00
4757;DHT22;2392;52.578;13.426;2022-09-06T09:07:46;19.80;81.60
4757;DHT22;2392;52.578;13.426;2022-09-06T09:10:20;19.90;81.40
4757;DHT22;2392;52.578;13.426;2022-09-06T09:12:49;20.00;81.50
4757;DHT22;2392;52.578;13.426;2022-09-06T09:15:19;20.10;81.30
4757;DHT22;2392;52.578;13.426;2022-09-06T09:17:49;20.20;81.00
4757;DHT22;2392;52.578;13.426;2022-09-06T09:20:17;20.30;81.30
4757;DHT22;2392;52.578;13.426;2022-09-06T09:22:45;20.50;81.20
4757;DHT22;2392;52.578;13.426;2022-09-06T09:25:17;20.50;80.70
4757;DHT22;2392;52.578;13.426;2022-09-06T09:27:45;20.50;80.30
4757;DHT22;2392;52.578;13.426;2022-09-06T09:30:15;20.60;80.90
4757;DHT22;2392;52.578;13.426;2022-09-06T09:32:43;20.60;80.00
4757;DHT22;2392;52.578;13.426;2022-09-06T09:35:24;20.60;80.00
4757;DHT22;2392;52.578;13.426;2022-09-06T09:37:59;20.60;79.60
4757;DHT22;2392;52.578;13.426;2022-09-06T09:40:29;20.70;79.70
4757;DHT22;2392;52.578;13.426;2022-09-06T09:43:09;20.70;79.90
4757;DHT22;2392;52.578;13.426;2022-09-06T09:45:36;20.90;79.80
4757;DHT22;2392;52.578;13.426;2022-09-06T09:48:17;21.00;79.60
4757;DHT22;2392;52.578;13.426;2022-09-06T09:50:46;21.10;79.50
4757;DHT22;2392;52.578;13.426;2022-09-06T09:53:15;21.10;78.90
4757;DHT22;2392;52.578;13.426;2022-09-06T09:55:43;21.10;78.40
4757;DHT22;2392;52.578;13.426;2022-09-06T09:58:19;21.00;78.30
4757;DHT22;2392;52.578;13.426;2022-09-06T10:00:47;21.00;78.30
4757;DHT22;2392;52.578;13.426;2022-09-06T10:03:17;21.10;78.70
4757;DHT22;2392;52.578;13.426;2022-09-06T10:05:55;21.20;78.50
4757;DHT22;2392;52.578;13.426;2022-09-06T10:08:25;21.20;77.90
4757;DHT22;2392;52.578;13.426;2022-09-06T10:10:52;21.30;78.00
4757;DHT22;2392;52.578;13.426;2022-09-06T10:13:22;21.40;78.30
4757;DHT22;2392;52.578;13.426;2022-09-06T10:15:52;21.40;78.50
4757;DHT22;2392;52.578;13.426;2022-09-06T10:18:28;21.40;78.50
4757;DHT22;2392;52.578;13.426;2022-09-06T10:20:58;21.50;78.00
4757;DHT22;2392;52.578;13.426;2022-09-06T10:23:36;21.60;77.90
4757;DHT22;2392;52.578;13.426;2022-09-06T10:26:07;21.70;77.40
4757;DHT22;2392;52.578;13.426;2022-09-06T10:28:37;21.80;78.00
4757;DHT22;2392;52.578;13.426;2022-09-06T10:31:44;21.80;77.70
4757;DHT22;2392;52.578;13.426;2022-09-06T10:34:35;21.90;77.20
4757;DHT22;2392;52.578;13.426;2022-09-06T10:37:19;22.00;77.40
4757;DHT22;2392;52.578;13.426;2022-09-06T10:39:54;22.20;76.80
4757;DHT22;2392;52.578;13.426;2022-09-06T10:42:31;22.30;76.40
4757;DHT22;2392;52.578;13.426;2022-09-06T10:45:16;22.50;76.50
4757;DHT22;2392;52.578;13.426;2022-09-06T10:47:54;22.60;76.20
4757;DHT22;2392;52.578;13.426;2022-09-06T10:50:26;22.70;75.40
4757;DHT22;2392;52.578;13.426;2022-09-06T10:53:00;22.60;74.90
4757;DHT22;2392;52.578;13.426;2022-09-06T10:55:32;22.60;75.20
4757;DHT22;2392;52.578;13.426;2022-09-06T10:58:00;22.50;75.00
4757;DHT22;2392;52.578;13.426;2022-09-06T11:00:32;22.40;75.60
4757;DHT22;2392;52.578;13.426;2022-09-06T11:03:04;22.10;75.20
4757;DHT22;2392;52.578;13.426;2022-09-06T11:05:35;22.00;75.70
4757;DHT22;2392;52.578;13.426;2022-09-06T11:08:10;22.00;76.00
4757;DHT22;2392;52.578;13.426;2022-09-06T11:10:41;21.90;76.70
4757;DHT22;2392;52.578;13.426;2022-09-06T11:13:13;21.80;76.30
4757;DHT22;2392;52.578;13.426;2022-09-06T11:15:43;21.80;76.40
4757;DHT22;2392;52.578;13.426;2022-09-06T11:18:16;21.70;76.70
4757;DHT22;2392;52.578;13.426;2022-09-06T11:20:50;21.80;76.80
4757;DHT22;2392;52.578;13.426;2022-09-06T11:23:36;21.90;76.90
4757;DHT22;2392;52.578;13.426;2022-09-06T11:26:23;22.00;76.80
4757;DHT22;2392;52.578;13.426;2022-09-06T11:28:54;22.10;76.80
4757;DHT22;2392;52.578;13.426;2022-09-06T11:31:24;22.10;76.50
4757;DHT22;2392;52.578;13.426;2022-09-06T11:34:05;22.10;76.50
4757;DHT22;2392;52.578;13.426;2022-09-06T11:36:35;22.00;76.40
4757;DHT22;2392;52.578;13.426;2022-09-06T11:39:06;21.90;76.70
4757;DHT22;2392;52.578;13.426;2022-09-06T11:41:37;21.90;76.70
4757;DHT22;2392;52.578;13.426;2022-09-06T11:44:05;21.80;76.60
4757;DHT22;2392;52.578;13.426;2022-09-06T11:47:00;21.80;77.00
4757;DHT22;2392;52.578;13.426;2022-09-06T11:49:34;21.70;77.30
4757;DHT22;2392;52.578;13.426;2022-09-06T11:54:46;21.70;77.80
4757;DHT22;2392;52.578;13.426;2022-09-06T11:57:15;21.70;77.80
4757;DHT22;2392;52.578;13.426;2022-09-06T11:59:52;21.80;77.90
4757;DHT22;2392;52.578;13.426;2022-09-06T12:02:36;21.80;77.50
4757;DHT22;2392;52.578;13.426;2022-09-06T12:05:18;21.80;77.30
4757;DHT22;2392;52.578;13.426;2022-09-06T12:11:23;21.80;76.50
4757;DHT22;2392;52.578;13.426;2022-09-06T12:13:54;21.70;76.50
4757;DHT22;2392;52.578;13.426;2022-09-06T12:16:22;21.80;77.10
4757;DHT22;2392;52.578;13.426;2022-09-06T12:19:00;21.80;77.40
4757;DHT22;2392;52.578;13.426;2022-09-06T12:21:43;21.80;77.70
4757;DHT22;2392;52.578;13.426;2022-09-06T12:24:52;21.80;77.60
4757;DHT22;2392;52.578;13.426;2022-09-06T12:27:21;21.80;76.80
4757;DHT22;2392;52.578;13.426;2022-09-06T12:29:55;21.80;76.70
4757;DHT22;2392;52.578;13.426;2022-09-06T12:32:30;21.80;76.60
4757;DHT22;2392;52.578;13.426;2022-09-06T12:34:57;21.80;76.50
4757;DHT22;2392;52.578;13.426;2022-09-06T12:37:30;21.80;77.00
4757;DHT22;2392;52.578;13.426;2022-09-06T12:39:58;21.70;76.90
4757;DHT22;2392;52.578;13.426;2022-09-06T12:42:26;21.80;77.10
4757;DHT22;2392;52.578;13.426;2022-09-06T12:44:54;21.80;77.10
4757;DHT22;2392;52.578;13.426;2022-09-06T12:47:24;21.80;77.20
4757;DHT22;2392;52.578;13.426;2022-09-06T12:50:07;21.80;77.20
4757;DHT22;2392;52.578;13.426;2022-09-06T12:52:43;21.90;77.50
4757;DHT22;2392;52.578;13.426;2022-09-06T12:55:21;21.90;77.70
4757;DHT22;2392;52.578;13.426;2022-09-06T12:57:52;22.00;78.00
4757;DHT22;2392;52.578;13.426;2022-09-06T13:00:20;22.10;78.20
4757;DHT22;2392;52.578;13.426;2022-09-06T13:03:02;22.10;78.70
4757;DHT22;2392;52.578;13.426;2022-09-06T13:05:34;22.20;78.50
4757;DHT22;2392;52.578;13.426;2022-09-06T13:08:06;22.20;78.90
4757;DHT22;2392;52.578;13.426;2022-09-06T13:10:38;22.30;78.70
4757;DHT22;2392;52.578;13.426;2022-09-06T13:13:09;22.30;77.80
4757;DHT22;2392;52.578;13.426;2022-09-06T13:15:37;22.40;78.00
4757;DHT22;2392;52.578;13.426;2022-09-06T13:18:20;22.40;78.20
4757;DHT22;2392;52.578;13.426;2022-09-06T13:20:58;22.50;78.10
4757;DHT22;2392;52.578;13.426;2022-09-06T13:23:27;22.50;78.40
4757;DHT22;2392;52.578;13.426;2022-09-06T13:25:55;22.60;78.50
4757;DHT22;2392;52.578;13.426;2022-09-06T13:28:28;22.60;77.80
4757;DHT22;2392;52.578;13.426;2022-09-06T13:31:08;22.70;77.60
4757;DHT22;2392;52.578;13.426;2022-09-06T13:33:36;22.80;77.70
4757;DHT22;2392;52.578;13.426;2022-09-06T13:36:27;22.80;77.40
4757;DHT22;2392;52.578;13.426;2022-09-06T13:38:56;22.90;77.30
4757;DHT22;2392;52.578;13.426;2022-09-06T13:41:38;22.90;77.10
4757;DHT22;2392;52.578;13.426;2022-09-06T13:44:18;22.90;77.30
4757;DHT22;2392;52.578;13.426;2022-09-06T13:46:46;23.00;77.50
4757;DHT22;2392;52.578;13.426;2022-09-06T13:49:17;23.00;77.60
4757;DHT22;2392;52.578;13.426;2022-09-06T13:51:44;23.10;77.80
4757;DHT22;2392;52.578;13.426;2022-09-06T13:54:12;23.00;77.80
4757;DHT22;2392;52.578;13.426;2022-09-06T13:56:40;23.10;77.60
4757;DHT22;2392;52.578;13.426;2022-09-06T13:59:11;23.10;77.30
4757;DHT22;2392;52.578;13.426;2022-09-06T14:01:39;23.10;77.00
4757;DHT22;2392;52.578;13.426;2022-09-06T14:04:09;23.10;77.50
4757;DHT22;2392;52.578;13.426;2022-09-06T14:06:37;23.20;77.80
4757;DHT22;2392;52.578;13.426;2022-09-06T14:09:05;23.40;78.00
4757;DHT22;2392;52.578;13.426;2022-09-06T14:11:32;23.50;77.70
4757;DHT22;2392;52.578;13.426;2022-09-06T14:13:58;23.60;78.00
4757;DHT22;2392;52.578;13.426;2022-09-06T14:16:27;23.80;76.80
4757;DHT22;2392;52.578;13.426;2022-09-06T14:18:54;23.90;76.50
4757;DHT22;2392;52.578;13.426;2022-09-06T14:21:21;23.90;75.80
4757;DHT22;2392;52.578;13.426;2022-09-06T14:23:49;23.90;76.20
4757;DHT22;2392;52.578;13.426;2022-09-06T14:26:17;23.90;76.40
4757;DHT22;2392;52.578;13.426;2022-09-06T14:28:45;23.90;76.40
4757;DHT22;2392;52.578;13.426;2022-09-06T14:31:14;23.80;76.20
4757;DHT22;2392;52.578;13.426;2022-09-06T14:33:42;23.80;76.20
4757;DHT22;2392;52.578;13.426;2022-09-06T14:36:12;23.80;75.90
4757;DHT22;2392;52.578;13.426;2022-09-06T14:38:40;23.70;77.00
4757;DHT22;2392;52.578;13.426;2022-09-06T14:41:08;23.70;76.80
4757;DHT22;2392;52.578;13.426;2022-09-06T14:43:35;23.60;76.90
4757;DHT22;2392;52.578;13.426;2022-09-06T14:46:03;23.60;77.50
4757;DHT22;2392;52.578;13.426;2022-09-06T14:48:31;23.60;77.40
4757;DHT22;2392;52.578;13.426;2022-09-06T14:51:06;23.70;78.00
4757;DHT22;2392;52.578;13.426;2022-09-06T14:53:33;23.80;77.00
4757;DHT22;2392;52.578;13.426;2022-09-06T14:56:01;24.00;77.40
4757;DHT22;2392;52.578;13.426;2022-09-06T14:58:29;24.10;77.00
4757;DHT22;2392;52.578;13.426;2022-09-06T15:01:08;24.10;76.50
4757;DHT22;2392;52.578;13.426;2022-09-06T15:03:36;24.10;76.60
4757;DHT22;2392;52.578;13.426;2022-09-06T15:06:05;24.00;76.10
4757;DHT22;2392;52.578;13.426;2022-09-06T15:08:32;23.80;76.80
4757;DHT22;2392;52.578;13.426;2022-09-06T15:10:59;23.70;76.60
4757;DHT22;2392;52.578;13.426;2022-09-06T15:13:27;23.50;76.90
4757;DHT22;2392;52.578;13.426;2022-09-06T15:15:54;23.50;77.30
4757;DHT22;2392;52.578;13.426;2022-09-06T15:18:21;23.40;77.50
4757;DHT22;2392;52.578;13.426;2022-09-06T15:20:49;23.40;77.50
4757;DHT22;2392;52.578;13.426;2022-09-06T15:23:17;23.40;77.70
4757;DHT22;2392;52.578;13.426;2022-09-06T15:25:45;23.50;78.20
4757;DHT22;2392;52.578;13.426;2022-09-06T15:28:12;23.50;77.90
4757;DHT22;2392;52.578;13.426;2022-09-06T15:30:39;23.40;77.40
4757;DHT22;2392;52.578;13.426;2022-09-06T15:33:06;23.30;77.70
4757;DHT22;2392;52.578;13.426;2022-09-06T15:35:36;23.20;77.90
4757;DHT22;2392;52.578;13.426;2022-09-06T15:38:03;23.10;78.30
4757;DHT22;2392;52.578;13.426;2022-09-06T15:40:32;23.00;78.20
4757;DHT22;2392;52.578;13.426;2022-09-06T15:42:59;22.90;78.30
4757;DHT22;2392;52.578;13.426;2022-09-06T15:45:27;22.90;78.50
4757;DHT22;2392;52.578;13.426;2022-09-06T15:47:55;22.80;78.70
4757;DHT22;2392;52.578;13.426;2022-09-06T15:50:23;22.80;78.70
4757;DHT22;2392;52.578;13.426;2022-09-06T15:52:49;22.70;78.90
4757;DHT22;2392;52.578;13.426;2022-09-06T15:55:16;22.70;79.10
4757;DHT22;2392;52.578;13.426;2022-09-06T15:58:14;22.70;78.80
4757;DHT22;2392;52.578;13.426;2022-09-06T16:00:41;22.60;78.50
4757;DHT22;2392;52.578;13.426;2022-09-06T16:03:09;22.50;78.60
4757;DHT22;2392;52.578;13.426;2022-09-06T16:05:36;22.50;78.60
4757;DHT22;2392;52.578;13.426;2022-09-06T16:08:03;22.50;78.90
4757;DHT22;2392;52.578;13.426;2022-09-06T16:10:30;22.40;78.40
4757;DHT22;2392;52.578;13.426;2022-09-06T16:12:58;22.40;78.40
4757;DHT22;2392;52.578;13.426;2022-09-06T16:15:26;22.30;78.60
4757;DHT22;2392;52.578;13.426;2022-09-06T16:17:53;22.30;78.60